sensor_id;sensor_type;location;lat;lon;timestamp;pressure;altitude;pressure_sealevel;temperature;humidity
78170;BME280;67412;49.892;14.490;2023-05-02T00:00:35;97042.88;;;12.13;70.36
78170;BME280;67412;49.892;14.490;2023-05-02T00:03:01;97053.22;;;12.11;69.61
78170;BME280;67412;49.892;14.490;2023-05-02T00:05:26;97051.41;;;12.15;69.91
78170;BME280;67412;49.892;14.490;2023-05-02T00:07:52;97048.13;;;12.10;69.50
78170;BME280;67412;49.892;14.490;2023-05-02T00:10:18;97048.13;;;12.10;70.19
78170;BME280;67412;49.892;14.490;2023-05-02T00:12:43;97045.66;;;12.05;70.58
78170;BME280;67412;49.892;14.490;2023-05-02T00:15:09;97048.19;;;12.07;70.42
78170;BME280;67412;49.892;14.490;2023-05-02T00:17:35;97045.75;;;12.01;70.91
78170;BME280;67412;49.892;14.490;2023-05-02T00:20:00;97041.59;;;11.95;70.84
78170;BME280;67412;49.892;14.490;2023-05-02T00:22:28;97052.69;;;11.97;70.55
78170;BME280;67412;49.892;14.490;2023-05-02T00:24:57;97051.00;;;11.96;70.49
78170;BME280;67412;49.892;14.490;2023-05-02T00:27:23;97046.00;;;11.90;71.19
78170;BME280;67412;49.892;14.490;2023-05-02T00:29:48;97050.47;;;11.84;71.21
78170;BME280;67412;49.892;14.490;2023-05-02T00:32:13;97050.53;;;11.81;71.40
78170;BME280;67412;49.892;14.490;2023-05-02T00:34:39;97044.53;;;11.80;71.52
78170;BME280;67412;49.892;14.490;2023-05-02T00:37:04;97045.41;;;11.81;71.30
78170;BME280;67412;49.892;14.490;2023-05-02T00:39:30;97044.56;;;11.79;71.54
78170;BME280;67412;49.892;14.490;2023-05-02T00:41:58;97048.97;;;11.74;71.44
78170;BME280;67412;49.892;14.490;2023-05-02T00:44:24;97058.31;;;11.78;71.43
78170;BME280;67412;49.892;14.490;2023-05-02T00:46:49;97051.53;;;11.74;71.64
78170;BME280;67412;49.892;14.490;2023-05-02T00:49:16;97056.56;;;11.80;71.23
78170;BME280;67412;49.892;14.490;2023-05-02T00:51:41;97053.13;;;11.79;71.25
78170;BME280;67412;49.892;14.490;2023-05-02T00:54:07;97049.97;;;11.67;71.83
78170;BME280;67412;49.892;14.490;2023-05-02T00:56:32;97053.38;;;11.67;71.57
78170;BME280;67412;49.892;14.490;2023-05-02T00:58:58;97056.88;;;11.64;72.18
78170;BME280;67412;49.892;14.490;2023-05-02T01:01:28;97053.56;;;11.59;71.77
78170;BME280;67412;49.892;14.490;2023-05-02T01:10:08;97056.19;;;11.56;71.44
78170;BME280;67412;49.892;14.490;2023-05-02T01:12:42;97061.59;;;11.44;71.70
78170;BME280;67412;49.892;14.490;2023-05-02T01:15:14;97062.63;;;11.37;70.97
78170;BME280;67412;49.892;14.490;2023-05-02T01:17:41;97066.06;;;11.36;71.25
78170;BME280;67412;49.892;14.490;2023-05-02T01:20:12;97061.84;;;11.34;70.93
78170;BME280;67412;49.892;14.490;2023-05-02T01:22:38;97067.00;;;11.32;71.13
78170;BME280;67412;49.892;14.490;2023-05-02T01:30:23;97073.38;;;11.16;71.33
78170;BME280;67412;49.892;14.490;2023-05-02T01:32:51;97073.44;;;11.13;71.39
78170;BME280;67412;49.892;14.490;2023-05-02T01:35:19;97082.81;;;11.14;71.55
78170;BME280;67412;49.892;14.490;2023-05-02T01:37:47;97079.47;;;11.10;71.43
78170;BME280;67412;49.892;14.490;2023-05-02T01:40:15;97076.91;;;11.10;71.50
78170;BME280;67412;49.892;14.490;2023-05-02T01:42:42;97089.03;;;11.04;71.90
78170;BME280;67412;49.892;14.490;2023-05-02T01:45:11;97089.13;;;10.99;72.08
78170;BME280;67412;49.892;14.490;2023-05-02T01:47:37;97093.25;;;11.06;71.65
78170;BME280;67412;49.892;14.490;2023-05-02T01:50:06;97096.81;;;11.01;71.99
78170;BME280;67412;49.892;14.490;2023-05-02T01:52:33;97097.75;;;10.95;72.03
78170;BME280;67412;49.892;14.490;2023-05-02T01:55:00;97096.16;;;10.90;72.32
78170;BME280;67412;49.892;14.490;2023-05-02T01:57:26;97103.16;;;10.83;72.97
78170;BME280;67412;49.892;14.490;2023-05-02T01:59:54;97098.91;;;10.81;73.44
78170;BME280;67412;49.892;14.490;2023-05-02T02:02:23;97104.94;;;10.78;73.29
78170;BME280;67412;49.892;14.490;2023-05-02T02:04:52;97106.59;;;10.82;73.45
78170;BME280;67412;49.892;14.490;2023-05-02T02:07:19;97093.97;;;10.68;73.70
78170;BME280;67412;49.892;14.490;2023-05-02T02:09:44;97103.25;;;10.77;73.43
78170;BME280;67412;49.892;14.490;2023-05-02T02:12:27;97101.72;;;10.67;73.55
78170;BME280;67412;49.892;14.490;2023-05-02T02:14:55;97100.03;;;10.66;73.77
78170;BME280;67412;49.892;14.490;2023-05-02T02:17:25;97094.28;;;10.53;74.27
78170;BME280;67412;49.892;14.490;2023-05-02T02:19:55;97100.34;;;10.48;74.31
78170;BME280;67412;49.892;14.490;2023-05-02T02:22:26;97094.50;;;10.41;74.47
78170;BME280;67412;49.892;14.490;2023-05-02T02:24:53;97096.25;;;10.38;74.69
78170;BME280;67412;49.892;14.490;2023-05-02T02:27:19;97109.19;;;10.32;75.10
78170;BME280;67412;49.892;14.490;2023-05-02T02:29:44;97108.50;;;10.22;75.71
78170;BME280;67412;49.892;14.490;2023-05-02T02:32:10;97107.66;;;10.22;75.74
78170;BME280;67412;49.892;14.490;2023-05-02T02:34:35;97105.88;;;10.24;75.42
78170;BME280;67412;49.892;14.490;2023-05-02T02:37:09;97113.75;;;10.13;75.93
78170;BME280;67412;49.892;14.490;2023-05-02T02:40:11;97117.25;;;10.07;76.09
78170;BME280;67412;49.892;14.490;2023-05-02T02:42:51;97118.13;;;10.05;76.16
78170;BME280;67412;49.892;14.490;2023-05-02T02:45:29;97121.66;;;9.98;76.49
78170;BME280;67412;49.892;14.490;2023-05-02T02:50:56;97137.28;;;9.86;76.91
78170;BME280;67412;49.892;14.490;2023-05-02T02:53:26;97133.75;;;9.90;77.16
78170;BME280;67412;49.892;14.490;2023-05-02T02:55:59;97137.22;;;9.89;77.29
78170;BME280;67412;49.892;14.490;2023-05-02T02:58:47;97142.47;;;9.80;77.89
78170;BME280;67412;49.892;14.490;2023-05-02T03:01:21;97144.97;;;9.83;77.71
78170;BME280;67412;49.892;14.490;2023-05-02T03:03:50;97141.66;;;9.78;77.87
78170;BME280;67412;49.892;14.490;2023-05-02T03:06:19;97141.72;;;9.73;78.39
78170;BME280;67412;49.892;14.490;2023-05-02T03:08:44;97144.28;;;9.73;78.38
78170;BME280;67412;49.892;14.490;2023-05-02T03:11:10;97141.81;;;9.67;78.38
78170;BME280;67412;49.892;14.490;2023-05-02T03:13:35;97142.78;;;9.58;79.03
78170;BME280;67412;49.892;14.490;2023-05-02T03:18:42;97141.06;;;9.59;79.11
78170;BME280;67412;49.892;14.490;2023-05-02T03:21:10;97141.13;;;9.54;79.59
78170;BME280;67412;49.892;14.490;2023-05-02T03:23:35;97138.50;;;9.57;79.38
78170;BME280;67412;49.892;14.490;2023-05-02T03:26:01;97149.53;;;9.64;79.06
78170;BME280;67412;49.892;14.490;2023-05-02T03:28:27;97145.28;;;9.63;78.86
78170;BME280;67412;49.892;14.490;2023-05-02T03:30:52;97149.50;;;9.65;79.11
78170;BME280;67412;49.892;14.490;2023-05-02T03:33:17;97150.41;;;9.61;79.26
78170;BME280;67412;49.892;14.490;2023-05-02T03:35:43;97151.28;;;9.60;79.93
78170;BME280;67412;49.892;14.490;2023-05-02T03:38:08;97158.91;;;9.66;79.16
78170;BME280;67412;49.892;14.490;2023-05-02T03:40:34;97162.34;;;9.65;79.60
78170;BME280;67412;49.892;14.490;2023-05-02T03:42:59;97164.03;;;9.66;79.56
78170;BME280;67412;49.892;14.490;2023-05-02T03:45:24;97161.38;;;9.73;79.13
78170;BME280;67412;49.892;14.490;2023-05-02T03:47:50;97167.47;;;9.67;79.71
78170;BME280;67412;49.892;14.490;2023-05-02T03:50:15;97168.31;;;9.66;79.67
78170;BME280;67412;49.892;14.490;2023-05-02T03:52:40;97158.78;;;9.76;79.37
78170;BME280;67412;49.892;14.490;2023-05-02T03:55:06;97163.03;;;9.77;79.07
78170;BME280;67412;49.892;14.490;2023-05-02T03:57:32;97165.66;;;9.74;79.31
78170;BME280;67412;49.892;14.490;2023-05-02T03:59:57;97170.72;;;9.77;78.83
78170;BME280;67412;49.892;14.490;2023-05-02T04:02:22;97181.84;;;9.76;79.09
78170;BME280;67412;49.892;14.490;2023-05-02T04:04:49;97183.63;;;9.72;79.37
78170;BME280;67412;49.892;14.490;2023-05-02T04:07:14;97192.09;;;9.77;79.02
78170;BME280;67412;49.892;14.490;2023-05-02T04:09:46;97186.88;;;9.85;79.44
78170;BME280;67412;49.892;14.490;2023-05-02T04:12:11;97182.59;;;9.84;79.32
78170;BME280;67412;49.892;14.490;2023-05-02T04:14:37;97183.56;;;9.75;80.06
78170;BME280;67412;49.892;14.490;2023-05-02T04:17:02;97186.13;;;9.77;79.66
78170;BME280;67412;49.892;14.490;2023-05-02T04:19:28;97187.88;;;9.71;80.71
78170;BME280;67412;49.892;14.490;2023-05-02T04:21:53;97193.00;;;9.75;80.19
78170;BME280;67412;49.892;14.490;2023-05-02T04:24:19;97194.47;;;9.91;79.32
78170;BME280;67412;49.892;14.490;2023-05-02T04:26:44;97198.75;;;9.93;79.16
78170;BME280;67412;49.892;14.490;2023-05-02T04:29:11;97206.34;;;9.98;79.20
78170;BME280;67412;49.892;14.490;2023-05-02T04:31:37;97205.53;;;9.96;79.58
78170;BME280;67412;49.892;14.490;2023-05-02T04:34:03;97214.06;;;9.98;79.58
78170;BME280;67412;49.892;14.490;2023-05-02T04:36:28;97214.00;;;10.02;78.97
78170;BME280;67412;49.892;14.490;2023-05-02T04:38:53;97220.84;;;10.03;79.15
78170;BME280;67412;49.892;14.490;2023-05-02T04:41:19;97221.59;;;10.10;79.23
78170;BME280;67412;49.892;14.490;2023-05-02T04:43:45;97223.28;;;10.15;78.79
78170;BME280;67412;49.892;14.490;2023-05-02T04:46:11;97230.88;;;10.20;79.06
78170;BME280;67412;49.892;14.490;2023-05-02T04:48:36;97230.00;;;10.23;78.54
78170;BME280;67412;49.892;14.490;2023-05-02T04:51:06;97229.22;;;10.19;78.61
78170;BME280;67412;49.892;14.490;2023-05-02T04:53:31;97238.47;;;10.29;78.53
78170;BME280;67412;49.892;14.490;2023-05-02T04:55:57;97236.00;;;10.22;78.86
78170;BME280;67412;49.892;14.490;2023-05-02T04:58:22;97234.94;;;10.36;78.24
78170;BME280;67412;49.892;14.490;2023-05-02T05:00:48;97235.78;;;10.37;78.27
78170;BME280;67412;49.892;14.490;2023-05-02T05:03:13;97240.13;;;10.33;78.32
78170;BME280;67412;49.892;14.490;2023-05-02T05:05:38;97248.47;;;10.47;78.24
78170;BME280;67412;49.892;14.490;2023-05-02T05:08:04;97242.41;;;10.51;77.75
78170;BME280;67412;49.892;14.490;2023-05-02T05:10:29;97246.56;;;10.58;77.61
78170;BME280;67412;49.892;14.490;2023-05-02T05:12:54;97250.69;;;10.68;77.08
78170;BME280;67412;49.892;14.490;2023-05-02T05:15:20;97250.63;;;10.73;76.73
78170;BME280;67412;49.892;14.490;2023-05-02T05:17:48;97254.03;;;10.75;77.15
78170;BME280;67412;49.892;14.490;2023-05-02T05:20:13;97258.31;;;10.75;76.59
78170;BME280;67412;49.892;14.490;2023-05-02T05:22:39;97260.84;;;10.78;76.56
78170;BME280;67412;49.892;14.490;2023-05-02T05:25:06;97264.28;;;10.77;76.89
78170;BME280;67412;49.892;14.490;2023-05-02T05:27:33;97284.03;;;10.75;76.99
78170;BME280;67412;49.892;14.490;2023-05-02T05:29:59;97283.09;;;10.77;77.57
78170;BME280;67412;49.892;14.490;2023-05-02T05:32:25;97282.25;;;10.77;77.31
78170;BME280;67412;49.892;14.490;2023-05-02T05:34:51;97279.69;;;10.77;77.31
78170;BME280;67412;49.892;14.490;2023-05-02T05:37:17;97281.44;;;10.75;77.20
78170;BME280;67412;49.892;14.490;2023-05-02T05:39:42;97280.59;;;10.73;77.65
78170;BME280;67412;49.892;14.490;2023-05-02T05:42:08;97285.63;;;10.82;76.95
78170;BME280;67412;49.892;14.490;2023-05-02T05:44:34;97283.09;;;10.79;76.91
78170;BME280;67412;49.892;14.490;2023-05-02T05:47:00;97286.41;;;10.85;76.80
78170;BME280;67412;49.892;14.490;2023-05-02T05:49:25;97282.81;;;10.97;76.41
78170;BME280;67412;49.892;14.490;2023-05-02T05:51:50;97285.19;;;11.06;76.72
78170;BME280;67412;49.892;14.490;2023-05-02T05:54:16;97285.06;;;11.17;76.06
78170;BME280;67412;49.892;14.490;2023-05-02T05:56:42;97285.91;;;11.15;75.21
78170;BME280;67412;49.892;14.490;2023-05-02T05:59:08;97296.34;;;11.06;76.45
78170;BME280;67412;49.892;14.490;2023-05-02T06:01:34;97299.56;;;11.19;75.92
78170;BME280;67412;49.892;14.490;2023-05-02T06:04:00;97300.16;;;11.33;75.57
78170;BME280;67412;49.892;14.490;2023-05-02T06:06:26;97309.59;;;11.33;75.04
78170;BME280;67412;49.892;14.490;2023-05-02T06:08:52;97310.50;;;11.30;75.18
78170;BME280;67412;49.892;14.490;2023-05-02T06:11:17;97313.09;;;11.29;76.40
78170;BME280;67412;49.892;14.490;2023-05-02T06:13:42;97314.13;;;11.20;74.56
78170;BME280;67412;49.892;14.490;2023-05-02T06:16:08;97309.78;;;11.22;75.88
78170;BME280;67412;49.892;14.490;2023-05-02T06:18:33;97314.78;;;11.31;75.27
78170;BME280;67412;49.892;14.490;2023-05-02T06:21:03;97318.91;;;11.40;74.83
78170;BME280;67412;49.892;14.490;2023-05-02T06:23:28;97312.81;;;11.45;74.66
78170;BME280;67412;49.892;14.490;2023-05-02T06:25:58;97320.56;;;11.44;74.23
78170;BME280;67412;49.892;14.490;2023-05-02T06:28:23;97330.03;;;11.42;74.66
78170;BME280;67412;49.892;14.490;2023-05-02T06:30:56;97328.31;;;11.41;74.64
78170;BME280;67412;49.892;14.490;2023-05-02T06:33:21;97330.81;;;11.45;75.10
78170;BME280;67412;49.892;14.490;2023-05-02T06:35:50;97332.69;;;11.37;75.22
78170;BME280;67412;49.892;14.490;2023-05-02T06:38:16;97341.19;;;11.42;74.86
78170;BME280;67412;49.892;14.490;2023-05-02T06:40:42;97342.06;;;11.40;75.16
78170;BME280;67412;49.892;14.490;2023-05-02T06:43:10;97344.44;;;11.52;75.03
78170;BME280;67412;49.892;14.490;2023-05-02T06:45:35;97347.84;;;11.54;74.32
78170;BME280;67412;49.892;14.490;2023-05-02T06:48:00;97350.31;;;11.58;74.00
78170;BME280;67412;49.892;14.490;2023-05-02T06:50:26;97346.69;;;11.72;73.06
78170;BME280;67412;49.892;14.490;2023-05-02T06:52:51;97348.41;;;11.71;73.22
78170;BME280;67412;49.892;14.490;2023-05-02T06:55:16;97352.47;;;11.83;73.48
78170;BME280;67412;49.892;14.490;2023-05-02T06:57:42;97366.22;;;11.82;72.68
78170;BME280;67412;49.892;14.490;2023-05-02T07:00:08;97356.09;;;11.73;73.47
78170;BME280;67412;49.892;14.490;2023-05-02T07:02:33;97358.63;;;11.76;72.70
78170;BME280;67412;49.892;14.490;2023-05-02T07:04:59;97355.72;;;11.92;73.42
78170;BME280;67412;49.892;14.490;2023-05-02T07:07:24;97357.28;;;12.01;72.40
78170;BME280;67412;49.892;14.490;2023-05-02T07:09:50;97366.00;;;11.94;72.63
78170;BME280;67412;49.892;14.490;2023-05-02T07:12:16;97368.28;;;12.09;71.90
78170;BME280;67412;49.892;14.490;2023-05-02T07:14:41;97371.56;;;12.16;72.63
78170;BME280;67412;49.892;14.490;2023-05-02T07:17:07;97371.78;;;12.06;71.67
78170;BME280;67412;49.892;14.490;2023-05-02T07:19:33;97368.91;;;12.20;72.90
78170;BME280;67412;49.892;14.490;2023-05-02T07:21:58;97366.22;;;12.26;72.76
78170;BME280;67412;49.892;14.490;2023-05-02T07:24:23;97373.84;;;12.31;72.04
78170;BME280;67412;49.892;14.490;2023-05-02T07:26:49;97373.03;;;12.29;71.55
78170;BME280;67412;49.892;14.490;2023-05-02T07:29:14;97375.41;;;12.39;71.75
78170;BME280;67412;49.892;14.490;2023-05-02T07:31:39;97376.03;;;12.50;72.09
78170;BME280;67412;49.892;14.490;2023-05-02T07:34:05;97371.41;;;12.65;71.35
78170;BME280;67412;49.892;14.490;2023-05-02T07:36:30;97377.34;;;12.68;71.30
78170;BME280;67412;49.892;14.490;2023-05-02T07:38:56;97373.59;;;12.83;71.86
78170;BME280;67412;49.892;14.490;2023-05-02T07:41:22;97372.53;;;12.93;71.53
78170;BME280;67412;49.892;14.490;2023-05-02T07:43:47;97378.47;;;12.96;70.87
78170;BME280;67412;49.892;14.490;2023-05-02T07:46:12;97381.91;;;13.34;69.34
78170;BME280;67412;49.892;14.490;2023-05-02T07:48:38;97385.97;;;13.42;67.41
78170;BME280;67412;49.892;14.490;2023-05-02T07:51:08;97382.63;;;13.73;67.16
78170;BME280;67412;49.892;14.490;2023-05-02T07:53:33;97382.09;;;13.94;66.52
78170;BME280;67412;49.892;14.490;2023-05-02T07:55:58;97389.97;;;13.89;65.59
78170;BME280;67412;49.892;14.490;2023-05-02T07:58:24;97386.06;;;13.73;65.13
78170;BME280;67412;49.892;14.490;2023-05-02T08:00:49;97388.63;;;14.07;64.57
78170;BME280;67412;49.892;14.490;2023-05-02T08:03:15;97396.47;;;14.04;64.47
78170;BME280;67412;49.892;14.490;2023-05-02T08:05:40;97402.78;;;13.92;64.01
78170;BME280;67412;49.892;14.490;2023-05-02T08:08:06;97405.31;;;14.26;64.85
78170;BME280;67412;49.892;14.490;2023-05-02T08:10:31;97410.81;;;14.46;64.67
78170;BME280;67412;49.892;14.490;2023-05-02T08:12:56;97404.38;;;14.29;63.50
78170;BME280;67412;49.892;14.490;2023-05-02T08:15:22;97408.56;;;14.34;63.98
78170;BME280;67412;49.892;14.490;2023-05-02T08:17:47;97404.25;;;14.35;62.66
78170;BME280;67412;49.892;14.490;2023-05-02T08:20:14;97407.16;;;14.21;62.12
78170;BME280;67412;49.892;14.490;2023-05-02T08:22:39;97404.31;;;14.32;63.14
78170;BME280;67412;49.892;14.490;2023-05-02T08:25:05;97409.03;;;14.48;61.66
78170;BME280;67412;49.892;14.490;2023-05-02T08:27:30;97415.34;;;14.69;61.71
78170;BME280;67412;49.892;14.490;2023-05-02T08:29:56;97411.56;;;14.81;61.71
78170;BME280;67412;49.892;14.490;2023-05-02T08:32:21;97415.38;;;14.97;59.89
78170;BME280;67412;49.892;14.490;2023-05-02T08:34:46;97418.47;;;15.08;62.02
78170;BME280;67412;49.892;14.490;2023-05-02T08:37:12;97418.84;;;14.96;60.84
78170;BME280;67412;49.892;14.490;2023-05-02T08:39:37;97426.28;;;15.34;60.82
78170;BME280;67412;49.892;14.490;2023-05-02T08:42:08;97419.94;;;15.17;59.98
78170;BME280;67412;49.892;14.490;2023-05-02T08:44:34;97425.72;;;15.25;59.57
78170;BME280;67412;49.892;14.490;2023-05-02T08:47:00;97426.84;;;15.44;59.93
78170;BME280;67412;49.892;14.490;2023-05-02T08:49:30;97422.66;;;15.68;58.77
78170;BME280;67412;49.892;14.490;2023-05-02T08:51:58;97433.63;;;15.48;57.86
78170;BME280;67412;49.892;14.490;2023-05-02T08:54:24;97430.25;;;15.18;58.76
78170;BME280;67412;49.892;14.490;2023-05-02T08:56:52;97436.91;;;14.97;56.96
78170;BME280;67412;49.892;14.490;2023-05-02T08:59:17;97438.97;;;14.86;56.68
78170;BME280;67412;49.892;14.490;2023-05-02T09:01:43;97444.84;;;15.21;56.55
78170;BME280;67412;49.892;14.490;2023-05-02T09:04:10;97447.53;;;15.18;57.07
78170;BME280;67412;49.892;14.490;2023-05-02T09:06:36;97443.63;;;15.32;57.22
78170;BME280;67412;49.892;14.490;2023-05-02T09:09:01;97448.97;;;15.26;58.40
78170;BME280;67412;49.892;14.490;2023-05-02T09:11:27;97455.47;;;15.12;57.88
78170;BME280;67412;49.892;14.490;2023-05-02T09:13:53;97456.13;;;15.18;57.09
78170;BME280;67412;49.892;14.490;2023-05-02T09:16:23;97452.78;;;15.42;57.66
78170;BME280;67412;49.892;14.490;2023-05-02T09:18:54;97460.13;;;15.56;56.35
78170;BME280;67412;49.892;14.490;2023-05-02T09:21:22;97467.59;;;15.37;58.22
78170;BME280;67412;49.892;14.490;2023-05-02T09:23:51;97470.94;;;15.41;57.52
78170;BME280;67412;49.892;14.490;2023-05-02T09:26:21;97467.78;;;15.61;53.46
78170;BME280;67412;49.892;14.490;2023-05-02T09:28:52;97468.31;;;15.42;55.97
78170;BME280;67412;49.892;14.490;2023-05-02T09:31:19;97479.25;;;15.80;55.79
78170;BME280;67412;49.892;14.490;2023-05-02T09:33:45;97479.78;;;15.63;54.51
78170;BME280;67412;49.892;14.490;2023-05-02T09:36:12;97488.16;;;15.43;55.09
78170;BME280;67412;49.892;14.490;2023-05-02T09:38:39;97482.31;;;15.65;55.55
78170;BME280;67412;49.892;14.490;2023-05-02T09:41:05;97477.28;;;15.86;55.15
78170;BME280;67412;49.892;14.490;2023-05-02T09:43:31;97481.09;;;15.76;54.53
78170;BME280;67412;49.892;14.490;2023-05-02T09:46:03;97479.88;;;16.13;53.67
78170;BME280;67412;49.892;14.490;2023-05-02T09:48:30;97478.94;;;16.15;55.19
78170;BME280;67412;49.892;14.490;2023-05-02T09:50:56;97480.34;;;16.24;55.22
78170;BME280;67412;49.892;14.490;2023-05-02T09:53:24;97485.00;;;16.39;56.07
78170;BME280;67412;49.892;14.490;2023-05-02T09:56:02;97485.72;;;16.69;53.46
78170;BME280;67412;49.892;14.490;2023-05-02T09:58:28;97482.47;;;16.64;51.79
78170;BME280;67412;49.892;14.490;2023-05-02T10:00:55;97481.66;;;16.62;53.94
78170;BME280;67412;49.892;14.490;2023-05-02T10:03:23;97486.97;;;16.82;51.38
78170;BME280;67412;49.892;14.490;2023-05-02T10:05:50;97490.31;;;16.85;51.24
78170;BME280;67412;49.892;14.490;2023-05-02T10:08:17;97488.84;;;17.02;50.18
78170;BME280;67412;49.892;14.490;2023-05-02T10:10:50;97498.66;;;16.70;48.21
78170;BME280;67412;49.892;14.490;2023-05-02T10:13:18;97505.19;;;16.56;49.14
78170;BME280;67412;49.892;14.490;2023-05-02T10:15:45;97504.13;;;16.86;47.93
78170;BME280;67412;49.892;14.490;2023-05-02T10:18:19;97507.97;;;16.50;48.07
78170;BME280;67412;49.892;14.490;2023-05-02T10:20:55;97503.97;;;16.41;48.67
78170;BME280;67412;49.892;14.490;2023-05-02T10:23:25;97509.31;;;16.86;50.05
78170;BME280;67412;49.892;14.490;2023-05-02T10:25:51;97503.69;;;16.98;49.22
78170;BME280;67412;49.892;14.490;2023-05-02T10:28:17;97500.28;;;16.73;49.46
78170;BME280;67412;49.892;14.490;2023-05-02T10:30:43;97508.81;;;16.50;50.09
78170;BME280;67412;49.892;14.490;2023-05-02T10:33:10;97504.44;;;16.77;47.45
78170;BME280;67412;49.892;14.490;2023-05-02T10:35:40;97507.81;;;17.04;49.08
78170;BME280;67412;49.892;14.490;2023-05-02T10:38:08;97499.72;;;17.34;48.99
78170;BME280;67412;49.892;14.490;2023-05-02T10:40:34;97496.97;;;17.16;49.26
78170;BME280;67412;49.892;14.490;2023-05-02T10:43:00;97504.41;;;16.78;50.77
78170;BME280;67412;49.892;14.490;2023-05-02T10:48:16;97506.31;;;16.73;49.59
78170;BME280;67412;49.892;14.490;2023-05-02T10:50:43;97504.22;;;17.06;50.26
78170;BME280;67412;49.892;14.490;2023-05-02T10:58:37;97500.13;;;17.69;50.02
78170;BME280;67412;49.892;14.490;2023-05-02T11:06:22;97500.00;;;17.04;49.70
78170;BME280;67412;49.892;14.490;2023-05-02T11:08:48;97502.28;;;16.89;50.76
78170;BME280;67412;49.892;14.490;2023-05-02T11:11:44;97500.72;;;16.84;50.95
78170;BME280;67412;49.892;14.490;2023-05-02T11:14:12;97494.22;;;16.72;50.51
78170;BME280;67412;49.892;14.490;2023-05-02T11:19:22;97500.06;;;17.02;50.74
78170;BME280;67412;49.892;14.490;2023-05-02T11:21:47;97499.25;;;17.02;49.44
78170;BME280;67412;49.892;14.490;2023-05-02T11:24:50;97495.97;;;17.42;50.01
78170;BME280;67412;49.892;14.490;2023-05-02T11:30:09;97504.78;;;17.37;50.14
78170;BME280;67412;49.892;14.490;2023-05-02T11:35:23;97507.75;;;17.05;49.81
78170;BME280;67412;49.892;14.490;2023-05-02T11:38:02;97500.75;;;17.07;49.31
78170;BME280;67412;49.892;14.490;2023-05-02T11:40:29;97505.22;;;17.04;48.35
78170;BME280;67412;49.892;14.490;2023-05-02T11:42:56;97494.06;;;17.02;48.52
78170;BME280;67412;49.892;14.490;2023-05-02T11:45:31;97500.63;;;17.33;48.48
78170;BME280;67412;49.892;14.490;2023-05-02T11:47:58;97508.63;;;17.51;47.84
78170;BME280;67412;49.892;14.490;2023-05-02T11:50:23;97504.94;;;17.56;48.36
78170;BME280;67412;49.892;14.490;2023-05-02T11:52:50;97509.41;;;17.53;48.40
78170;BME280;67412;49.892;14.490;2023-05-02T11:55:15;97510.41;;;17.49;47.44
78170;BME280;67412;49.892;14.490;2023-05-02T11:57:40;97513.41;;;17.16;46.56
78170;BME280;67412;49.892;14.490;2023-05-02T12:00:07;97508.25;;;16.91;47.19
78170;BME280;67412;49.892;14.490;2023-05-02T12:02:40;97516.31;;;16.84;48.24
78170;BME280;67412;49.892;14.490;2023-05-02T12:05:07;97517.44;;;16.77;46.15
78170;BME280;67412;49.892;14.490;2023-05-02T12:07:37;97513.72;;;16.84;48.19
78170;BME280;67412;49.892;14.490;2023-05-02T12:10:03;97527.84;;;16.51;47.88
78170;BME280;67412;49.892;14.490;2023-05-02T12:12:29;97526.56;;;16.37;48.40
78170;BME280;67412;49.892;14.490;2023-05-02T12:14:55;97536.03;;;16.38;50.13
78170;BME280;67412;49.892;14.490;2023-05-02T12:17:21;97536.19;;;15.54;55.08
78170;BME280;67412;49.892;14.490;2023-05-02T12:19:47;97536.75;;;15.05;56.70
78170;BME280;67412;49.892;14.490;2023-05-02T12:22:13;97539.75;;;15.20;57.26
78170;BME280;67412;49.892;14.490;2023-05-02T12:24:39;97549.19;;;14.92;59.37
78170;BME280;67412;49.892;14.490;2023-05-02T12:27:12;97552.19;;;14.44;62.10
78170;BME280;67412;49.892;14.490;2023-05-02T12:29:42;97559.63;;;14.21;65.89
78170;BME280;67412;49.892;14.490;2023-05-02T12:32:08;97567.31;;;13.87;67.56
78170;BME280;67412;49.892;14.490;2023-05-02T12:34:34;97563.66;;;13.61;69.57
78170;BME280;67412;49.892;14.490;2023-05-02T12:37:01;97560.75;;;13.76;69.59
78170;BME280;67412;49.892;14.490;2023-05-02T12:39:42;97551.78;;;13.90;68.80
78170;BME280;67412;49.892;14.490;2023-05-02T12:42:19;97556.97;;;13.90;68.98
78170;BME280;67412;49.892;14.490;2023-05-02T12:44:47;97551.63;;;13.96;66.90
78170;BME280;67412;49.892;14.490;2023-05-02T12:47:14;97551.34;;;14.09;68.31
78170;BME280;67412;49.892;14.490;2023-05-02T12:49:57;97550.03;;;14.26;69.90
78170;BME280;67412;49.892;14.490;2023-05-02T12:52:46;97550.41;;;14.11;67.63
78170;BME280;67412;49.892;14.490;2023-05-02T12:55:20;97549.22;;;13.89;65.97
78170;BME280;67412;49.892;14.490;2023-05-02T12:57:46;97558.09;;;13.79;68.97
78170;BME280;67412;49.892;14.490;2023-05-02T13:00:12;97556.22;;;13.84;70.97
78170;BME280;67412;49.892;14.490;2023-05-02T13:02:38;97553.41;;;13.94;69.04
78170;BME280;67412;49.892;14.490;2023-05-02T13:05:16;97565.34;;;13.98;66.71
78170;BME280;67412;49.892;14.490;2023-05-02T13:07:43;97563.19;;;13.80;65.09
78170;BME280;67412;49.892;14.490;2023-05-02T13:10:09;97568.09;;;13.92;67.25
78170;BME280;67412;49.892;14.490;2023-05-02T13:12:35;97562.41;;;13.77;64.79
78170;BME280;67412;49.892;14.490;2023-05-02T13:15:03;97563.38;;;13.73;66.83
78170;BME280;67412;49.892;14.490;2023-05-02T13:17:28;97565.22;;;13.68;65.35
78170;BME280;67412;49.892;14.490;2023-05-02T13:19:54;97562.50;;;13.74;67.53
78170;BME280;67412;49.892;14.490;2023-05-02T13:22:19;97558.00;;;13.83;66.49
78170;BME280;67412;49.892;14.490;2023-05-02T13:24:45;97564.03;;;13.81;67.69
78170;BME280;67412;49.892;14.490;2023-05-02T13:27:11;97562.31;;;13.81;67.04
78170;BME280;67412;49.892;14.490;2023-05-02T13:29:36;97555.16;;;13.92;68.10